sensor_id;sensor_type;location;lat;lon;timestamp;pressure;altitude;pressure_sealevel;temperature;humidity
72677;BME280;60755;51.374;10.662;2024-01-15T00:00:16;95378.81;;;0.10;96.50
72677;BME280;60755;51.374;10.662;2024-01-15T00:02:43;95375.28;;;0.05;97.96
72677;BME280;60755;51.374;10.662;2024-01-15T00:05:11;95375.00;;;-0.06;97.55
72677;BME280;60755;51.374;10.662;2024-01-15T00:07:38;95375.34;;;-0.02;98.36
72677;BME280;60755;51.374;10.662;2024-01-15T00:10:06;95359.06;;;-0.03;97.33
72677;BME280;60755;51.374;10.662;2024-01-15T00:12:32;95362.09;;;0.13;96.89
72677;BME280;60755;51.374;10.662;2024-01-15T00:15:00;95363.81;;;0.19;96.48
72677;BME280;60755;51.374;10.662;2024-01-15T00:17:27;95368.53;;;-0.15;97.49
72677;BME280;60755;51.374;10.662;2024-01-15T00:19:54;95355.50;;;0.17;96.95
72677;BME280;60755;51.374;10.662;2024-01-15T00:22:24;95352.13;;;0.16;98.10
72677;BME280;60755;51.374;10.662;2024-01-15T00:24:51;95358.66;;;0.01;98.54
72677;BME280;60755;51.374;10.662;2024-01-15T00:27:18;95353.91;;;-0.03;98.92
72677;BME280;60755;51.374;10.662;2024-01-15T00:29:45;95347.59;;;0.12;97.76
72677;BME280;60755;51.374;10.662;2024-01-15T00:32:12;95350.63;;;0.09;98.42
72677;BME280;60755;51.374;10.662;2024-01-15T00:34:39;95352.91;;;-0.02;97.41
72677;BME280;60755;51.374;10.662;2024-01-15T00:37:06;95342.63;;;-0.26;98.95
72677;BME280;60755;51.374;10.662;2024-01-15T00:39:35;95355.41;;;-0.13;99.04
72677;BME280;60755;51.374;10.662;2024-01-15T00:42:02;95360.47;;;-0.25;98.70
72677;BME280;60755;51.374;10.662;2024-01-15T00:44:29;95356.47;;;-0.21;98.55
72677;BME280;60755;51.374;10.662;2024-01-15T00:46:56;95353.78;;;-0.08;98.18
72677;BME280;60755;51.374;10.662;2024-01-15T00:49:22;95352.09;;;-0.20;97.90
72677;BME280;60755;51.374;10.662;2024-01-15T00:51:50;95352.03;;;-0.14;98.74
72677;BME280;60755;51.374;10.662;2024-01-15T00:54:17;95346.59;;;-0.24;99.36
72677;BME280;60755;51.374;10.662;2024-01-15T00:56:45;95353.34;;;-0.05;98.74
72677;BME280;60755;51.374;10.662;2024-01-15T00:59:12;95345.88;;;0.06;97.97
72677;BME280;60755;51.374;10.662;2024-01-15T01:01:40;95348.69;;;-0.14;99.55
72677;BME280;60755;51.374;10.662;2024-01-15T01:04:08;95349.19;;;-0.06;99.24
72677;BME280;60755;51.374;10.662;2024-01-15T01:06:35;95351.25;;;-0.14;100.00
72677;BME280;60755;51.374;10.662;2024-01-15T01:09:02;95350.13;;;0.00;99.42
72677;BME280;60755;51.374;10.662;2024-01-15T01:11:29;95347.28;;;-0.17;99.84
72677;BME280;60755;51.374;10.662;2024-01-15T01:13:58;95362.66;;;-0.04;99.98
72677;BME280;60755;51.374;10.662;2024-01-15T01:16:25;95354.06;;;-0.16;99.81
72677;BME280;60755;51.374;10.662;2024-01-15T01:18:52;95335.91;;;0.09;99.15
72677;BME280;60755;51.374;10.662;2024-01-15T01:21:19;95334.97;;;0.04;99.81
72677;BME280;60755;51.374;10.662;2024-01-15T01:23:46;95344.06;;;0.06;99.94
72677;BME280;60755;51.374;10.662;2024-01-15T01:26:15;95337.84;;;-0.23;99.51
72677;BME280;60755;51.374;10.662;2024-01-15T01:28:42;95336.97;;;0.20;100.00
72677;BME280;60755;51.374;10.662;2024-01-15T01:31:10;95329.25;;;0.02;99.97
72677;BME280;60755;51.374;10.662;2024-01-15T01:33:38;95336.09;;;0.08;99.48
72677;BME280;60755;51.374;10.662;2024-01-15T01:36:07;95344.66;;;0.08;98.58
72677;BME280;60755;51.374;10.662;2024-01-15T01:38:34;95338.13;;;0.06;98.51
72677;BME280;60755;51.374;10.662;2024-01-15T01:41:01;95336.06;;;-0.04;99.16
72677;BME280;60755;51.374;10.662;2024-01-15T01:43:28;95341.16;;;-0.16;98.84
72677;BME280;60755;51.374;10.662;2024-01-15T01:45:56;95325.22;;;0.06;100.00
72677;BME280;60755;51.374;10.662;2024-01-15T01:48:25;95334.63;;;0.00;100.00
72677;BME280;60755;51.374;10.662;2024-01-15T01:50:53;95338.56;;;0.21;98.35
72677;BME280;60755;51.374;10.662;2024-01-15T01:53:21;95325.94;;;0.13;98.18
72677;BME280;60755;51.374;10.662;2024-01-15T01:55:48;95328.25;;;0.03;98.16
72677;BME280;60755;51.374;10.662;2024-01-15T01:58:16;95327.16;;;0.10;98.65
72677;BME280;60755;51.374;10.662;2024-01-15T02:00:44;95331.53;;;0.10;96.84
72677;BME280;60755;51.374;10.662;2024-01-15T02:03:11;95317.84;;;0.09;97.73
72677;BME280;60755;51.374;10.662;2024-01-15T02:05:40;95322.28;;;0.02;98.58
72677;BME280;60755;51.374;10.662;2024-01-15T02:08:07;95322.44;;;-0.30;99.94
72677;BME280;60755;51.374;10.662;2024-01-15T02:10:34;95323.38;;;-0.24;99.72
72677;BME280;60755;51.374;10.662;2024-01-15T02:13:00;95328.94;;;-0.09;99.86
72677;BME280;60755;51.374;10.662;2024-01-15T02:15:27;95333.81;;;-0.01;99.60
72677;BME280;60755;51.374;10.662;2024-01-15T02:17:59;95332.69;;;-0.05;98.16
72677;BME280;60755;51.374;10.662;2024-01-15T02:20:26;95342.84;;;-0.10;99.19
72677;BME280;60755;51.374;10.662;2024-01-15T02:23:06;95330.88;;;-0.04;98.06
72677;BME280;60755;51.374;10.662;2024-01-15T02:25:34;95322.13;;;-0.03;98.88
72677;BME280;60755;51.374;10.662;2024-01-15T02:28:02;95328.25;;;-0.16;98.55
72677;BME280;60755;51.374;10.662;2024-01-15T02:30:30;95326.22;;;-0.14;99.90
72677;BME280;60755;51.374;10.662;2024-01-15T02:32:56;95329.53;;;0.12;99.65
72677;BME280;60755;51.374;10.662;2024-01-15T02:35:23;95328.50;;;0.13;98.83
72677;BME280;60755;51.374;10.662;2024-01-15T02:37:50;95337.69;;;-0.10;100.00
72677;BME280;60755;51.374;10.662;2024-01-15T02:40:19;95342.63;;;-0.08;99.87
72677;BME280;60755;51.374;10.662;2024-01-15T02:42:46;95346.31;;;-0.16;100.00
72677;BME280;60755;51.374;10.662;2024-01-15T02:45:13;95346.03;;;-0.08;100.00
72677;BME280;60755;51.374;10.662;2024-01-15T02:47:39;95338.75;;;-0.36;100.00
72677;BME280;60755;51.374;10.662;2024-01-15T02:50:07;95355.91;;;-0.23;100.00
72677;BME280;60755;51.374;10.662;2024-01-15T02:52:34;95337.41;;;-0.02;100.00
72677;BME280;60755;51.374;10.662;2024-01-15T02:55:01;95338.63;;;-0.04;100.00
72677;BME280;60755;51.374;10.662;2024-01-15T02:57:29;95328.03;;;0.04;100.00
72677;BME280;60755;51.374;10.662;2024-01-15T02:59:56;95332.13;;;-0.07;99.39
72677;BME280;60755;51.374;10.662;2024-01-15T03:02:23;95332.47;;;-0.21;98.72
72677;BME280;60755;51.374;10.662;2024-01-15T03:04:50;95335.78;;;-0.14;98.59
72677;BME280;60755;51.374;10.662;2024-01-15T03:07:17;95342.13;;;-0.17;99.66
72677;BME280;60755;51.374;10.662;2024-01-15T03:09:44;95344.59;;;-0.22;98.70
72677;BME280;60755;51.374;10.662;2024-01-15T03:12:11;95338.69;;;-0.29;98.90
72677;BME280;60755;51.374;10.662;2024-01-15T03:14:39;95338.41;;;-0.39;98.41
72677;BME280;60755;51.374;10.662;2024-01-15T03:17:06;95336.81;;;-0.40;97.88
72677;BME280;60755;51.374;10.662;2024-01-15T03:19:34;95328.94;;;-0.45;97.50
72677;BME280;60755;51.374;10.662;2024-01-15T03:22:02;95333.81;;;-0.19;97.75
72677;BME280;60755;51.374;10.662;2024-01-15T03:24:29;95336.41;;;-0.37;97.99
72677;BME280;60755;51.374;10.662;2024-01-15T03:26:56;95334.09;;;-0.45;97.19
72677;BME280;60755;51.374;10.662;2024-01-15T03:29:23;95338.25;;;-0.44;97.50
72677;BME280;60755;51.374;10.662;2024-01-15T03:31:51;95336.09;;;-0.47;95.78
72677;BME280;60755;51.374;10.662;2024-01-15T03:34:18;95333.03;;;-0.38;95.47
72677;BME280;60755;51.374;10.662;2024-01-15T03:36:45;95340.81;;;-0.44;94.59
72677;BME280;60755;51.374;10.662;2024-01-15T03:39:12;95331.28;;;-0.44;94.42
72677;BME280;60755;51.374;10.662;2024-01-15T03:41:39;95335.66;;;-0.44;93.52
72677;BME280;60755;51.374;10.662;2024-01-15T03:44:06;95333.59;;;-0.36;93.82
72677;BME280;60755;51.374;10.662;2024-01-15T03:46:33;95337.53;;;-0.33;92.70
72677;BME280;60755;51.374;10.662;2024-01-15T03:49:01;95330.47;;;-0.19;92.41
72677;BME280;60755;51.374;10.662;2024-01-15T03:51:28;95320.78;;;-0.24;91.87
72677;BME280;60755;51.374;10.662;2024-01-15T03:53:55;95319.13;;;-0.37;91.33
72677;BME280;60755;51.374;10.662;2024-01-15T03:56:22;95317.63;;;-0.26;91.68
72677;BME280;60755;51.374;10.662;2024-01-15T03:58:49;95327.09;;;-0.20;92.74
72677;BME280;60755;51.374;10.662;2024-01-15T04:01:16;95325.94;;;-0.24;91.90
72677;BME280;60755;51.374;10.662;2024-01-15T04:03:42;95330.09;;;-0.23;91.47
72677;BME280;60755;51.374;10.662;2024-01-15T04:06:11;95341.22;;;-0.04;92.60
72677;BME280;60755;51.374;10.662;2024-01-15T04:08:38;95328.03;;;-0.14;92.23
72677;BME280;60755;51.374;10.662;2024-01-15T04:11:05;95336.13;;;-0.11;92.54
72677;BME280;60755;51.374;10.662;2024-01-15T04:13:32;95334.75;;;-0.32;92.20
72677;BME280;60755;51.374;10.662;2024-01-15T04:15:59;95338.13;;;-0.31;92.73
72677;BME280;60755;51.374;10.662;2024-01-15T04:18:26;95333.53;;;-0.29;93.42
72677;BME280;60755;51.374;10.662;2024-01-15T04:20:53;95337.91;;;-0.11;93.02
72677;BME280;60755;51.374;10.662;2024-01-15T04:23:22;95330.38;;;-0.31;93.48
72677;BME280;60755;51.374;10.662;2024-01-15T04:25:49;95328.44;;;-0.36;93.76
72677;BME280;60755;51.374;10.662;2024-01-15T04:28:16;95315.81;;;-0.25;92.75
72677;BME280;60755;51.374;10.662;2024-01-15T04:30:43;95321.72;;;-0.18;92.52
72677;BME280;60755;51.374;10.662;2024-01-15T04:33:10;95323.16;;;-0.22;93.51
72677;BME280;60755;51.374;10.662;2024-01-15T04:35:37;95329.81;;;-0.15;93.77
72677;BME280;60755;51.374;10.662;2024-01-15T04:38:04;95335.78;;;-0.14;92.92
72677;BME280;60755;51.374;10.662;2024-01-15T04:40:32;95333.59;;;-0.36;93.26
72677;BME280;60755;51.374;10.662;2024-01-15T04:42:59;95325.13;;;-0.24;92.90
72677;BME280;60755;51.374;10.662;2024-01-15T04:45:26;95322.56;;;-0.24;94.47
72677;BME280;60755;51.374;10.662;2024-01-15T04:47:54;95332.25;;;-0.20;92.72
72677;BME280;60755;51.374;10.662;2024-01-15T04:50:22;95336.84;;;-0.04;91.93
72677;BME280;60755;51.374;10.662;2024-01-15T04:52:49;95334.88;;;-0.08;92.11
72677;BME280;60755;51.374;10.662;2024-01-15T04:55:16;95334.63;;;0.00;91.78
72677;BME280;60755;51.374;10.662;2024-01-15T04:57:45;95332.53;;;-0.10;92.11
72677;BME280;60755;51.374;10.662;2024-01-15T05:00:12;95326.97;;;-0.07;92.25
72677;BME280;60755;51.374;10.662;2024-01-15T05:02:40;95322.66;;;-0.13;93.06
72677;BME280;60755;51.374;10.662;2024-01-15T05:05:07;95335.00;;;-0.15;93.47
72677;BME280;60755;51.374;10.662;2024-01-15T05:07:34;95322.44;;;-0.11;92.84
72677;BME280;60755;51.374;10.662;2024-01-15T05:10:01;95324.16;;;-0.05;92.97
72677;BME280;60755;51.374;10.662;2024-01-15T05:12:28;95324.88;;;0.02;92.76
72677;BME280;60755;51.374;10.662;2024-01-15T05:14:56;95318.22;;;-0.06;92.70
72677;BME280;60755;51.374;10.662;2024-01-15T05:17:23;95320.84;;;0.06;92.05
72677;BME280;60755;51.374;10.662;2024-01-15T05:19:50;95306.13;;;0.07;90.83
72677;BME280;60755;51.374;10.662;2024-01-15T05:22:17;95306.78;;;-0.16;91.82
72677;BME280;60755;51.374;10.662;2024-01-15T05:24:44;95308.88;;;-0.25;92.70
72677;BME280;60755;51.374;10.662;2024-01-15T05:27:11;95306.72;;;-0.10;91.46
72677;BME280;60755;51.374;10.662;2024-01-15T05:29:38;95298.25;;;-0.17;92.43
72677;BME280;60755;51.374;10.662;2024-01-15T05:32:06;95307.00;;;-0.18;92.95
72677;BME280;60755;51.374;10.662;2024-01-15T05:34:34;95297.47;;;-0.17;92.45
72677;BME280;60755;51.374;10.662;2024-01-15T05:37:01;95301.50;;;-0.03;91.86
72677;BME280;60755;51.374;10.662;2024-01-15T05:39:28;95306.88;;;-0.23;92.11
72677;BME280;60755;51.374;10.662;2024-01-15T05:41:54;95297.41;;;-0.11;92.24
72677;BME280;60755;51.374;10.662;2024-01-15T05:44:21;95297.56;;;-0.24;93.20
72677;BME280;60755;51.374;10.662;2024-01-15T05:46:48;95295.69;;;-0.17;92.75
72677;BME280;60755;51.374;10.662;2024-01-15T05:49:16;95299.56;;;-0.08;93.35
72677;BME280;60755;51.374;10.662;2024-01-15T05:51:43;95299.03;;;-0.16;92.86
72677;BME280;60755;51.374;10.662;2024-01-15T05:54:10;95291.88;;;0.04;93.63
72677;BME280;60755;51.374;10.662;2024-01-15T05:56:37;95290.50;;;-0.17;92.98
72677;BME280;60755;51.374;10.662;2024-01-15T05:59:04;95287.66;;;-0.09;93.18
72677;BME280;60755;51.374;10.662;2024-01-15T06:01:31;95288.81;;;-0.05;94.74
72677;BME280;60755;51.374;10.662;2024-01-15T06:03:58;95298.84;;;-0.15;94.09
72677;BME280;60755;51.374;10.662;2024-01-15T06:06:26;95298.75;;;-0.08;94.70
72677;BME280;60755;51.374;10.662;2024-01-15T06:08:53;95299.13;;;-0.23;95.05
72677;BME280;60755;51.374;10.662;2024-01-15T06:11:20;95300.72;;;-0.22;94.75
72677;BME280;60755;51.374;10.662;2024-01-15T06:13:47;95303.22;;;-0.15;94.47
72677;BME280;60755;51.374;10.662;2024-01-15T06:16:14;95298.81;;;-0.51;96.44
72677;BME280;60755;51.374;10.662;2024-01-15T06:18:42;95298.81;;;-0.33;96.74
72677;BME280;60755;51.374;10.662;2024-01-15T06:21:09;95309.50;;;-0.48;98.07
72677;BME280;60755;51.374;10.662;2024-01-15T06:23:39;95310.47;;;-0.24;97.20
72677;BME280;60755;51.374;10.662;2024-01-15T06:26:07;95311.44;;;-0.43;97.69
72677;BME280;60755;51.374;10.662;2024-01-15T06:28:34;95313.00;;;-0.42;98.01
72677;BME280;60755;51.374;10.662;2024-01-15T06:31:01;95312.38;;;-0.38;98.17
72677;BME280;60755;51.374;10.662;2024-01-15T06:33:27;95304.78;;;-0.33;97.82
72677;BME280;60755;51.374;10.662;2024-01-15T06:35:54;95306.28;;;-0.43;98.59
72677;BME280;60755;51.374;10.662;2024-01-15T06:38:22;95304.44;;;-0.36;98.11
72677;BME280;60755;51.374;10.662;2024-01-15T06:40:50;95308.22;;;-0.39;99.34
72677;BME280;60755;51.374;10.662;2024-01-15T06:43:17;95316.88;;;-0.33;99.10
72677;BME280;60755;51.374;10.662;2024-01-15T06:45:44;95314.59;;;-0.41;99.33
72677;BME280;60755;51.374;10.662;2024-01-15T06:48:11;95312.91;;;-0.29;98.40
72677;BME280;60755;51.374;10.662;2024-01-15T06:50:40;95312.72;;;-0.34;99.42
72677;BME280;60755;51.374;10.662;2024-01-15T06:53:06;95308.50;;;-0.47;99.62
72677;BME280;60755;51.374;10.662;2024-01-15T06:55:33;95305.56;;;-0.50;98.91
72677;BME280;60755;51.374;10.662;2024-01-15T06:58:02;95305.72;;;-0.45;99.09
72677;BME280;60755;51.374;10.662;2024-01-15T07:00:29;95320.53;;;-0.41;99.67
72677;BME280;60755;51.374;10.662;2024-01-15T07:02:56;95314.53;;;-0.35;98.14
72677;BME280;60755;51.374;10.662;2024-01-15T07:05:23;95317.75;;;-0.39;97.36
72677;BME280;60755;51.374;10.662;2024-01-15T07:07:50;95315.47;;;-0.29;97.07
72677;BME280;60755;51.374;10.662;2024-01-15T07:10:17;95315.63;;;-0.24;95.92
72677;BME280;60755;51.374;10.662;2024-01-15T07:12:44;95314.03;;;-0.25;96.88
72677;BME280;60755;51.374;10.662;2024-01-15T07:15:13;95308.69;;;-0.48;98.08
72677;BME280;60755;51.374;10.662;2024-01-15T07:17:41;95311.16;;;-0.53;99.92
72677;BME280;60755;51.374;10.662;2024-01-15T07:20:09;95312.88;;;-0.47;100.00
72677;BME280;60755;51.374;10.662;2024-01-15T07:22:36;95324.25;;;-0.55;100.00
72677;BME280;60755;51.374;10.662;2024-01-15T07:25:04;95315.88;;;-0.50;100.00
72677;BME280;60755;51.374;10.662;2024-01-15T07:27:32;95327.97;;;-0.51;100.00
72677;BME280;60755;51.374;10.662;2024-01-15T07:29:59;95326.56;;;-0.47;100.00
72677;BME280;60755;51.374;10.662;2024-01-15T07:32:27;95326.34;;;-0.45;99.35
72677;BME280;60755;51.374;10.662;2024-01-15T07:34:54;95316.31;;;-0.53;98.90
72677;BME280;60755;51.374;10.662;2024-01-15T07:37:21;95319.44;;;-0.51;98.83
72677;BME280;60755;51.374;10.662;2024-01-15T07:39:49;95320.34;;;-0.39;99.18
72677;BME280;60755;51.374;10.662;2024-01-15T07:42:16;95321.75;;;-0.43;99.42
72677;BME280;60755;51.374;10.662;2024-01-15T07:44:43;95334.38;;;-0.17;99.55
72677;BME280;60755;51.374;10.662;2024-01-15T07:47:10;95336.00;;;0.03;99.06
72677;BME280;60755;51.374;10.662;2024-01-15T07:49:39;95328.72;;;0.30;97.05
72677;BME280;60755;51.374;10.662;2024-01-15T07:52:06;95334.09;;;0.28;94.92
72677;BME280;60755;51.374;10.662;2024-01-15T07:54:33;95332.09;;;0.30;95.27
72677;BME280;60755;51.374;10.662;2024-01-15T07:57:01;95336.34;;;0.06;97.59
72677;BME280;60755;51.374;10.662;2024-01-15T07:59:29;95333.69;;;0.13;98.12
72677;BME280;60755;51.374;10.662;2024-01-15T08:01:56;95330.25;;;0.01;97.83
72677;BME280;60755;51.374;10.662;2024-01-15T08:04:23;95340.88;;;-0.08;96.62
72677;BME280;60755;51.374;10.662;2024-01-15T08:06:51;95326.44;;;0.21;96.76
72677;BME280;60755;51.374;10.662;2024-01-15T08:09:18;95312.38;;;0.17;96.34
72677;BME280;60755;51.374;10.662;2024-01-15T08:11:45;95325.75;;;0.44;95.71
72677;BME280;60755;51.374;10.662;2024-01-15T08:14:12;95329.22;;;0.68;93.68
72677;BME280;60755;51.374;10.662;2024-01-15T08:16:39;95332.19;;;0.83;94.13
72677;BME280;60755;51.374;10.662;2024-01-15T08:19:07;95329.19;;;0.38;95.02
72677;BME280;60755;51.374;10.662;2024-01-15T08:21:34;95327.09;;;0.47;95.30
72677;BME280;60755;51.374;10.662;2024-01-15T08:24:03;95327.53;;;-0.05;97.25
72677;BME280;60755;51.374;10.662;2024-01-15T08:26:30;95322.84;;;0.22;98.11
72677;BME280;60755;51.374;10.662;2024-01-15T08:28:57;95320.53;;;0.33;97.49
72677;BME280;60755;51.374;10.662;2024-01-15T08:31:25;95328.81;;;0.05;98.35
72677;BME280;60755;51.374;10.662;2024-01-15T08:33:51;95326.50;;;0.33;98.65
72677;BME280;60755;51.374;10.662;2024-01-15T08:36:18;95330.47;;;0.47;97.33
72677;BME280;60755;51.374;10.662;2024-01-15T08:38:45;95325.16;;;-0.06;99.21
72677;BME280;60755;51.374;10.662;2024-01-15T08:41:14;95330.94;;;0.08;98.84
72677;BME280;60755;51.374;10.662;2024-01-15T08:43:41;95321.16;;;0.46;96.86
72677;BME280;60755;51.374;10.662;2024-01-15T08:46:08;95317.25;;;0.55;95.41
72677;BME280;60755;51.374;10.662;2024-01-15T08:48:35;95305.81;;;1.05;92.48
72677;BME280;60755;51.374;10.662;2024-01-15T08:51:02;95302.81;;;0.78;91.49
72677;BME280;60755;51.374;10.662;2024-01-15T08:53:29;95298.47;;;0.90;91.99
72677;BME280;60755;51.374;10.662;2024-01-15T08:55:56;95305.16;;;1.56;92.12
72677;BME280;60755;51.374;10.662;2024-01-15T08:58:25;95311.47;;;1.49;89.46
72677;BME280;60755;51.374;10.662;2024-01-15T09:00:52;95311.91;;;1.34;89.50
72677;BME280;60755;51.374;10.662;2024-01-15T09:03:19;95309.09;;;1.24;90.13
72677;BME280;60755;51.374;10.662;2024-01-15T09:05:46;95302.78;;;1.08;90.16
72677;BME280;60755;51.374;10.662;2024-01-15T09:08:14;95309.63;;;0.61;95.20
72677;BME280;60755;51.374;10.662;2024-01-15T09:10:41;95297.09;;;0.76;94.01
72677;BME280;60755;51.374;10.662;2024-01-15T09:13:08;95303.28;;;0.45;95.02
72677;BME280;60755;51.374;10.662;2024-01-15T09:15:36;95302.72;;;0.43;95.14
72677;BME280;60755;51.374;10.662;2024-01-15T09:18:03;95301.44;;;1.17;94.48
72677;BME280;60755;51.374;10.662;2024-01-15T09:20:30;95299.31;;;1.26;92.13
72677;BME280;60755;51.374;10.662;2024-01-15T09:22:58;95302.09;;;1.01;92.34
72677;BME280;60755;51.374;10.662;2024-01-15T09:25:25;95307.28;;;0.59;95.24
72677;BME280;60755;51.374;10.662;2024-01-15T09:27:52;95308.44;;;0.75;96.13
72677;BME280;60755;51.374;10.662;2024-01-15T09:30:19;95303.09;;;1.00;93.46
72677;BME280;60755;51.374;10.662;2024-01-15T09:32:47;95311.88;;;1.10;94.60
72677;BME280;60755;51.374;10.662;2024-01-15T09:35:15;95311.41;;;0.90;93.30
72677;BME280;60755;51.374;10.662;2024-01-15T09:37:42;95313.66;;;1.92;89.87
72677;BME280;60755;51.374;10.662;2024-01-15T09:40:12;95308.59;;;2.09;91.53
72677;BME280;60755;51.374;10.662;2024-01-15T09:42:40;95315.84;;;1.60;89.71
72677;BME280;60755;51.374;10.662;2024-01-15T09:45:08;95315.84;;;1.25;90.80
72677;BME280;60755;51.374;10.662;2024-01-15T09:47:36;95324.38;;;1.25;92.54
72677;BME280;60755;51.374;10.662;2024-01-15T09:50:06;95314.63;;;1.39;92.68
72677;BME280;60755;51.374;10.662;2024-01-15T09:52:34;95317.19;;;1.27;93.26
72677;BME280;60755;51.374;10.662;2024-01-15T09:55:03;95320.88;;;1.20;91.40
72677;BME280;60755;51.374;10.662;2024-01-15T09:57:31;95317.78;;;1.53;92.65
72677;BME280;60755;51.374;10.662;2024-01-15T09:59:59;95316.97;;;1.76;92.00
72677;BME280;60755;51.374;10.662;2024-01-15T10:02:30;95323.41;;;1.38;92.30
72677;BME280;60755;51.374;10.662;2024-01-15T10:04:57;95318.44;;;1.72;91.13
72677;BME280;60755;51.374;10.662;2024-01-15T10:07:26;95324.19;;;1.62;89.33
72677;BME280;60755;51.374;10.662;2024-01-15T10:09:54;95318.56;;;1.30;91.88
72677;BME280;60755;51.374;10.662;2024-01-15T10:12:21;95314.03;;;1.84;89.18
72677;BME280;60755;51.374;10.662;2024-01-15T10:14:49;95316.44;;;2.83;85.65
72677;BME280;60755;51.374;10.662;2024-01-15T10:17:17;95303.00;;;3.19;83.41
72677;BME280;60755;51.374;10.662;2024-01-15T10:19:45;95303.81;;;3.53;81.60
72677;BME280;60755;51.374;10.662;2024-01-15T10:22:13;95297.81;;;3.36;82.35
72677;BME280;60755;51.374;10.662;2024-01-15T10:24:42;95292.00;;;2.21;85.23
72677;BME280;60755;51.374;10.662;2024-01-15T10:27:10;95294.03;;;2.19;87.62
72677;BME280;60755;51.374;10.662;2024-01-15T10:29:37;95304.22;;;2.38;87.89
72677;BME280;60755;51.374;10.662;2024-01-15T10:32:06;95298.84;;;1.52;90.91
72677;BME280;60755;51.374;10.662;2024-01-15T10:34:37;95302.69;;;1.61;91.15
72677;BME280;60755;51.374;10.662;2024-01-15T10:37:07;95298.28;;;1.74;91.50
72677;BME280;60755;51.374;10.662;2024-01-15T10:39:35;61260.47;;;-144.32;100.00
72677;BME280;60755;51.374;10.662;2024-01-15T10:42:03;61260.47;;;-144.32;100.00
72677;BME280;60755;51.374;10.662;2024-01-15T10:44:31;61260.47;;;-144.32;100.00
72677;BME280;60755;51.374;10.662;2024-01-15T10:46:59;61260.47;;;-144.32;100.00
72677;BME280;60755;51.374;10.662;2024-01-15T10:49:26;95292.97;;;3.06;87.19
72677;BME280;60755;51.374;10.662;2024-01-15T10:51:56;61260.47;;;-144.32;100.00
72677;BME280;60755;51.374;10.662;2024-01-15T10:54:23;61260.47;;;-144.32;100.00
72677;BME280;60755;51.374;10.662;2024-01-15T10:56:50;61260.47;;;-144.32;100.00
72677;BME280;60755;51.374;10.662;2024-01-15T10:59:20;61260.47;;;-144.32;100.00
72677;BME280;60755;51.374;10.662;2024-01-15T11:01:48;61260.47;;;-144.32;100.00
72677;BME280;60755;51.374;10.662;2024-01-15T11:04:16;61260.47;;;-144.32;100.00
72677;BME280;60755;51.374;10.662;2024-01-15T11:06:45;61260.47;;;-144.32;100.00
72677;BME280;60755;51.374;10.662;2024-01-15T11:09:12;61260.47;;;-144.32;100.00
72677;BME280;60755;51.374;10.662;2024-01-15T11:11:41;95277.66;;;2.59;85.56
72677;BME280;60755;51.374;10.662;2024-01-15T11:14:10;95276.28;;;3.19;83.66
72677;BME280;60755;51.374;10.662;2024-01-15T11:16:55;95262.72;;;4.11;81.09
72677;BME280;60755;51.374;10.662;2024-01-15T11:19:24;95273.97;;;3.56;81.30
72677;BME280;60755;51.374;10.662;2024-01-15T11:21:51;95277.44;;;3.83;79.70
72677;BME280;60755;51.374;10.662;2024-01-15T11:24:36;95270.22;;;3.47;81.69
72677;BME280;60755;51.374;10.662;2024-01-15T11:27:03;95276.75;;;3.32;81.78
72677;BME280;60755;51.374;10.662;2024-01-15T11:29:32;95274.59;;;3.63;81.54
72677;BME280;60755;51.374;10.662;2024-01-15T11:32:03;95264.75;;;2.64;84.58
72677;BME280;60755;51.374;10.662;2024-01-15T11:34:51;95270.63;;;2.43;86.16
72677;BME280;60755;51.374;10.662;2024-01-15T11:37:19;95272.66;;;2.86;86.32
72677;BME280;60755;51.374;10.662;2024-01-15T11:39:46;95278.22;;;2.78;84.02
72677;BME280;60755;51.374;10.662;2024-01-15T11:42:14;61260.47;;;-144.32;100.00
72677;BME280;60755;51.374;10.662;2024-01-15T11:44:41;95271.19;;;3.24;82.70
72677;BME280;60755;51.374;10.662;2024-01-15T11:47:10;95255.25;;;3.76;80.76
72677;BME280;60755;51.374;10.662;2024-01-15T11:49:59;95263.03;;;3.54;78.87
72677;BME280;60755;51.374;10.662;2024-01-15T11:52:32;95264.09;;;3.75;80.50
72677;BME280;60755;51.374;10.662;2024-01-15T11:55:01;95269.59;;;3.78;79.06
72677;BME280;60755;51.374;10.662;2024-01-15T11:57:38;95265.78;;;4.08;78.98
72677;BME280;60755;51.374;10.662;2024-01-15T12:00:08;95263.66;;;3.61;79.73
72677;BME280;60755;51.374;10.662;2024-01-15T12:02:40;95266.59;;;3.48;81.58
72677;BME280;60755;51.374;10.662;2024-01-15T12:05:08;95262.47;;;3.52;80.68
72677;BME280;60755;51.374;10.662;2024-01-15T12:07:35;95262.91;;;2.76;83.32
72677;BME280;60755;51.374;10.662;2024-01-15T12:10:02;95264.81;;;2.98;81.04
72677;BME280;60755;51.374;10.662;2024-01-15T12:12:39;95257.25;;;2.79;80.21
72677;BME280;60755;51.374;10.662;2024-01-15T12:15:07;95262.56;;;3.57;78.49
72677;BME280;60755;51.374;10.662;2024-01-15T12:17:34;95257.50;;;3.67;79.52
72677;BME280;60755;51.374;10.662;2024-01-15T12:20:03;95256.75;;;2.49;81.13
72677;BME280;60755;51.374;10.662;2024-01-15T12:22:31;95258.06;;;1.94;84.23
72677;BME280;60755;51.374;10.662;2024-01-15T12:24:58;95255.44;;;2.35;82.38
72677;BME280;60755;51.374;10.662;2024-01-15T12:27:25;95260.38;;;2.65;80.88
72677;BME280;60755;51.374;10.662;2024-01-15T12:29:53;95253.72;;;2.40;83.03
72677;BME280;60755;51.374;10.662;2024-01-15T12:32:20;95255.03;;;2.71;81.63
72677;BME280;60755;51.374;10.662;2024-01-15T12:34:49;95266.06;;;3.29;80.32
72677;BME280;60755;51.374;10.662;2024-01-15T12:37:19;95264.19;;;2.91;82.01
72677;BME280;60755;51.374;10.662;2024-01-15T12:39:46;95257.25;;;2.79;83.04
72677;BME280;60755;51.374;10.662;2024-01-15T12:42:14;95256.84;;;3.04;79.22
72677;BME280;60755;51.374;10.662;2024-01-15T12:44:42;95257.06;;;2.52;81.55
72677;BME280;60755;51.374;10.662;2024-01-15T12:47:09;95246.53;;;2.59;83.43
72677;BME280;60755;51.374;10.662;2024-01-15T12:49:36;95255.38;;;2.46;83.74
72677;BME280;60755;51.374;10.662;2024-01-15T12:52:08;95252.00;;;2.46;83.02
72677;BME280;60755;51.374;10.662;2024-01-15T12:54:37;95251.03;;;2.07;82.15